createdAt,value
2018-10-07T00:02:11.683Z,92.90
2018-10-07T00:07:34.035Z,93.00
2018-10-07T00:12:55.885Z,92.90
2018-10-07T00:18:18.052Z,92.70
2018-10-07T00:23:39.875Z,92.50
2018-10-07T00:29:02.123Z,92.30
2018-10-07T00:34:24.008Z,91.80
2018-10-07T00:39:46.232Z,91.50
2018-10-07T00:45:08.629Z,91.10
2018-10-07T00:50:30.822Z,90.80
2018-10-07T00:55:52.849Z,90.60
2018-10-07T01:01:14.806Z,90.20
2018-10-07T01:06:37.078Z,90.10
2018-10-07T01:11:58.833Z,89.80
2018-10-07T01:17:21.071Z,89.50
2018-10-07T01:22:42.861Z,88.70
2018-10-07T01:28:04.933Z,89.00
2018-10-07T01:33:29.045Z,88.60
2018-10-07T01:38:50.954Z,88.90
2018-10-07T01:44:12.852Z,88.10
2018-10-07T01:49:35.603Z,89.00
2018-10-07T01:54:57.593Z,87.70
2018-10-07T02:00:19.243Z,87.90
2018-10-07T02:05:41.546Z,87.70
2018-10-07T02:11:03.298Z,88.00
2018-10-07T02:16:25.429Z,88.30
2018-10-07T02:21:47.198Z,87.80
2018-10-07T02:27:09.437Z,87.10
2018-10-07T02:32:31.286Z,87.50
2018-10-07T02:37:53.550Z,87.40
2018-10-07T02:43:15.377Z,87.80
2018-10-07T02:48:37.503Z,87.10
2018-10-07T02:53:59.717Z,87.10
2018-10-07T02:59:21.893Z,87.70
2018-10-07T03:04:43.795Z,87.50
2018-10-07T03:10:05.870Z,88.00
2018-10-07T03:15:27.706Z,87.10
2018-10-07T03:20:49.870Z,87.00
2018-10-07T03:26:11.984Z,86.60
2018-10-07T03:31:34.086Z,86.90
2018-10-07T03:36:55.958Z,86.60
2018-10-07T03:42:18.853Z,86.80
2018-10-07T03:47:41.065Z,86.60
2018-10-07T03:53:03.030Z,86.40
2018-10-07T03:58:25.177Z,87.10
2018-10-07T04:03:47.302Z,87.10
2018-10-07T04:09:12.348Z,86.70
2018-10-07T04:14:34.688Z,86.60
2018-10-07T04:19:56.434Z,86.30
2018-10-07T04:25:18.186Z,86.50
2018-10-07T04:30:40.391Z,87.20
2018-10-07T04:36:02.294Z,86.80
2018-10-07T04:41:24.373Z,87.00
2018-10-07T04:46:46.365Z,86.50
2018-10-07T04:52:09.165Z,86.70
2018-10-07T04:57:31.225Z,86.70
2018-10-07T05:02:53.109Z,87.10
2018-10-07T05:08:15.068Z,86.80
2018-10-07T05:13:45.826Z,87.30
2018-10-07T05:19:08.121Z,86.80
2018-10-07T05:24:30.266Z,86.40
2018-10-07T05:29:52.082Z,86.40
2018-10-07T05:35:14.352Z,86.40
2018-10-07T05:40:36.217Z,86.30
2018-10-07T05:45:58.589Z,86.70
2018-10-07T05:51:20.724Z,86.80
2018-10-07T05:56:42.866Z,87.50
2018-10-07T06:02:07.155Z,87.60
2018-10-07T06:07:29.893Z,88.20
2018-10-07T06:12:51.759Z,88.30
2018-10-07T06:18:13.481Z,88.90
2018-10-07T06:23:35.945Z,89.40
2018-10-07T06:28:57.676Z,90.00
2018-10-07T06:34:19.753Z,90.00
2018-10-07T06:39:41.637Z,90.00
2018-10-07T06:45:03.936Z,90.20
2018-10-07T06:50:25.755Z,90.30
2018-10-07T06:55:48.535Z,90.40
2018-10-07T07:01:10.481Z,90.50
2018-10-07T07:06:32.533Z,90.40
2018-10-07T07:11:54.251Z,90.40
2018-10-07T07:17:16.395Z,90.10
2018-10-07T07:22:38.662Z,90.30
2018-10-07T07:28:00.813Z,90.10
2018-10-07T07:33:22.985Z,89.80
2018-10-07T07:38:44.771Z,89.20
2018-10-07T07:44:06.507Z,89.00
2018-10-07T07:49:28.554Z,88.60
2018-10-07T07:54:51.575Z,87.60
2018-10-07T08:00:13.840Z,87.40
2018-10-07T08:05:35.618Z,86.30
2018-10-07T08:10:57.819Z,85.30
2018-10-07T08:16:19.721Z,84.00
2018-10-07T08:21:41.955Z,82.70
2018-10-07T08:27:03.798Z,81.20
2018-10-07T08:32:26.155Z,81.40
2018-10-07T08:37:47.838Z,80.00
2018-10-07T08:43:09.989Z,78.60
2018-10-07T08:48:31.939Z,79.10
2018-10-07T08:53:53.657Z,78.10
2018-10-07T08:59:15.629Z,77.30
2018-10-07T09:04:37.665Z,75.60
2018-10-07T09:09:59.521Z,73.30
2018-10-07T09:15:21.582Z,74.00
2018-10-07T09:20:43.350Z,72.00
2018-10-07T09:26:05.565Z,70.60
2018-10-07T09:31:27.365Z,68.90
2018-10-07T09:36:49.929Z,67.50
2018-10-07T09:42:12.254Z,65.90
2018-10-07T09:47:34.425Z,62.70
2018-10-07T09:52:56.414Z,65.40
2018-10-07T09:58:18.228Z,64.00
2018-10-07T10:03:40.438Z,62.10
2018-10-07T10:09:02.759Z,60.10
2018-10-07T10:14:24.819Z,57.40
2018-10-07T10:20:13.069Z,58.20
2018-10-07T10:25:42.282Z,60.00
2018-10-07T10:31:10.309Z,60.00
2018-10-07T10:36:50.812Z,57.50
2018-10-07T10:42:19.827Z,58.50
2018-10-07T10:47:45.039Z,57.50
2018-10-07T10:53:20.445Z,57.10
2018-10-07T10:58:54.171Z,58.50
2018-10-07T11:04:31.297Z,57.80
2018-10-07T11:11:01.342Z,57.20
2018-10-07T11:16:25.901Z,58.50
2018-10-07T11:24:05.908Z,57.60
2018-10-07T11:29:39.478Z,57.40
2018-10-07T11:35:11.596Z,53.60
2018-10-07T11:40:43.581Z,52.90
2018-10-07T11:46:18.314Z,56.90
2018-10-07T11:52:53.596Z,53.60
2018-10-07T11:58:15.532Z,52.90
2018-10-07T12:03:37.541Z,52.30
2018-10-07T12:08:59.674Z,51.10
2018-10-07T12:14:21.849Z,52.60
2018-10-07T12:19:43.921Z,52.50
2018-10-07T12:25:06.558Z,53.60
2018-10-07T12:30:28.386Z,53.60
2018-10-07T12:35:50.301Z,53.70
2018-10-07T12:41:12.205Z,52.20
2018-10-07T12:46:34.502Z,51.60
2018-10-07T12:51:56.664Z,51.20
2018-10-07T12:57:19.178Z,53.90
2018-10-07T13:02:42.056Z,53.10
2018-10-07T13:08:04.123Z,52.90
2018-10-07T13:13:26.069Z,48.50
2018-10-07T13:18:48.079Z,50.40
2018-10-07T13:24:09.869Z,51.00
2018-10-07T13:29:35.638Z,52.00
2018-10-07T13:34:58.517Z,49.00
2018-10-07T13:40:20.295Z,49.00
2018-10-07T13:45:42.314Z,50.50
2018-10-07T13:51:04.688Z,50.60
2018-10-07T13:56:26.593Z,51.20
2018-10-07T14:01:49.102Z,48.60
2018-10-07T14:07:10.865Z,44.70
2018-10-07T14:12:32.845Z,47.50
2018-10-07T14:17:54.635Z,46.90
2018-10-07T14:23:16.987Z,46.50
2018-10-07T14:28:38.830Z,44.30
2018-10-07T14:34:01.601Z,45.80
2018-10-07T14:39:23.920Z,45.50
2018-10-07T14:44:45.891Z,47.20
2018-10-07T14:50:08.474Z,47.00
2018-10-07T14:55:31.081Z,47.40
2018-10-07T15:00:53.252Z,46.60
2018-10-07T15:06:15.494Z,49.30
2018-10-07T15:11:37.413Z,48.50
2018-10-07T15:16:59.206Z,47.80
2018-10-07T15:22:21.265Z,49.80
2018-10-07T15:27:43.103Z,50.50
2018-10-07T15:33:05.323Z,51.00
2018-10-07T15:38:27.346Z,52.30
2018-10-07T15:43:49.945Z,50.70
2018-10-07T15:49:12.846Z,50.00
2018-10-07T15:54:35.077Z,51.60
2018-10-07T15:59:56.834Z,52.70
2018-10-07T16:05:19.033Z,53.80
2018-10-07T16:10:41.263Z,53.90
2018-10-07T16:16:03.727Z,54.30
2018-10-07T16:21:26.483Z,53.00
2018-10-07T16:26:48.819Z,53.10
2018-10-07T16:32:10.853Z,54.10
2018-10-07T16:37:33.091Z,54.00
2018-10-07T16:42:55.133Z,54.60
2018-10-07T16:48:17.330Z,54.60
2018-10-07T16:53:41.541Z,54.40
2018-10-07T16:59:03.343Z,55.20
2018-10-07T17:04:25.531Z,56.10
2018-10-07T17:09:47.328Z,56.60
2018-10-07T17:15:09.911Z,56.50
2018-10-07T17:20:31.606Z,57.80
2018-10-07T17:25:53.843Z,57.90
2018-10-07T17:31:15.644Z,59.00
2018-10-07T17:36:37.922Z,59.60
2018-10-07T17:42:02.941Z,60.10
2018-10-07T17:47:30.133Z,61.40
2018-10-07T17:52:56.305Z,62.10
2018-10-07T17:58:22.326Z,63.80
2018-10-07T18:03:44.477Z,63.60
2018-10-07T18:09:07.686Z,64.30
2018-10-07T18:14:29.949Z,65.20
2018-10-07T18:19:52.088Z,66.10
2018-10-07T18:25:14.162Z,67.20
2018-10-07T18:30:36.175Z,67.50
2018-10-07T18:35:58.357Z,68.30
2018-10-07T18:41:20.157Z,69.70
2018-10-07T18:46:42.526Z,71.50
2018-10-07T18:52:04.595Z,71.70
2018-10-07T18:57:26.698Z,71.60
2018-10-07T19:02:49.795Z,72.00
2018-10-07T19:08:11.904Z,73.00
2018-10-07T19:13:33.806Z,73.30
2018-10-07T19:18:56.021Z,74.00
2018-10-07T19:24:18.314Z,75.10
2018-10-07T19:29:40.473Z,77.00
2018-10-07T19:35:02.650Z,77.10
2018-10-07T19:40:28.553Z,76.90
2018-10-07T19:45:52.892Z,77.30
2018-10-07T19:51:21.049Z,77.70
2018-10-07T19:56:47.412Z,77.70
2018-10-07T20:02:13.756Z,77.40
2018-10-07T20:07:44.943Z,78.70
2018-10-07T20:13:08.251Z,80.00
2018-10-07T20:28:17.696Z,81.50
2018-10-07T20:33:42.060Z,81.10
2018-10-07T20:39:05.945Z,81.40
2018-10-07T20:44:28.173Z,81.70
2018-10-07T20:49:50.685Z,82.20
2018-10-07T20:55:12.473Z,83.30
2018-10-07T21:00:34.909Z,84.00
2018-10-07T21:05:56.813Z,83.30
2018-10-07T21:11:18.888Z,84.60
2018-10-07T21:16:40.780Z,85.50
2018-10-07T21:22:03.630Z,88.30
2018-10-07T21:27:25.857Z,87.50
2018-10-07T21:32:47.835Z,86.70
2018-10-07T21:38:09.990Z,85.20
2018-10-07T21:43:31.750Z,85.00
2018-10-07T21:48:53.999Z,85.70
2018-10-07T21:54:15.914Z,85.40
2018-10-07T21:59:38.010Z,86.00
2018-10-07T22:05:00.280Z,86.60
2018-10-07T22:10:22.439Z,86.40
2018-10-07T22:15:44.348Z,86.40
2018-10-07T22:21:06.555Z,86.30
2018-10-07T22:26:28.405Z,87.30
2018-10-07T22:31:50.241Z,89.20
2018-10-07T22:37:12.262Z,90.00
2018-10-07T22:42:34.541Z,89.70
2018-10-07T22:47:56.427Z,89.10
2018-10-07T22:53:18.127Z,88.40
2018-10-07T22:58:40.318Z,89.80
2018-10-07T23:04:02.155Z,90.80
2018-10-07T23:09:23.867Z,90.80
2018-10-07T23:14:45.900Z,91.00
2018-10-07T23:20:08.232Z,91.00
2018-10-07T23:25:30.218Z,91.00
2018-10-07T23:30:52.525Z,91.00
2018-10-07T23:36:14.302Z,91.20
2018-10-07T23:41:37.653Z,91.10
2018-10-07T23:46:59.627Z,91.40
2018-10-07T23:52:21.644Z,91.40
2018-10-07T23:57:43.654Z,91.60
